Conwy, United Kingdom
Current Conditions -  °F | °C
As of 11:50 PM on Saturday 22 Nov 2014 (Local Time) from EGOV Reporting Station
Broken Clouds Broken Clouds  
Wind Chill: 44°   Ceiling: 15000
Heat Index: 46°   Visibility: 6mi
Dew Point: 41°   Wind: 6mph
Humidity: 81%   Direction: 300°WNW
Pressure: 30"   Gusts: NA
Location:  53.28°N, 3.83°W
Report Text: EGOV 222350Z AUTO 30005KT 9999 BKN150/// BKN180/// 08/05 Q1016
Loading
Personal Weather Stations






























Interactive Weather Map New forecast layout! Learn more

10-Day Weather Forecast

Advertisements
Track Severe Weather on mobile